»·PEaware :: N757PC KOTH-KYKM

N757PC :: KOTH-KYKM

FLIGHT INFORMATION

Flight Status: Arrived
Operator: Privately registered:
United States
More flights under this callsign
Pilot: Duane J. (9702)
Aircraft: Unknown
(LEG2)
More flights by this aircraft type
Origin: KOTH North Bend Mun
United States
Destination: KYKM Yakima Air Term/Mcallister
United States
More flights between these airports :: More routes between these airports
Route: OTH6 RARES
File this flight plan on PilotEdge
Remarks: inst approach please. flying in full IMC.
Altitude:
(Current/Filed)
14,000ft
Speed:
(Current/Filed)
200kts
Departed: 06-Jan-18 03:16 PM
Arrived: 06-Jan-18 04:30 PM
Distance/Time
Traveled:
246nm/1:14
Distance/Time
To Go:
Arrived

Flight Plot

Page will automatically refresh every two minutes.

Flight plan parsing failed; only flown route is shown


Map Options




Map Legend


Flown Route
Filed Route
Departure Airport
Arrival Airport
Navaid (VOR, NDB)
Fix

Horizontal Profiles

Position Reports

Time Latitude Longitude Heading Altitude Ground
Speed
06-Jan-18 14:58 43.414864 -124.245166 240 11ft 0kts
06-Jan-18 14:59 43.414864 -124.245166 240 11ft 0kts
06-Jan-18 15:00 43.414864 -124.245166 240 11ft 0kts
06-Jan-18 15:01 43.414864 -124.245166 240 11ft 0kts
06-Jan-18 15:02 43.414864 -124.245167 240 11ft 0kts
06-Jan-18 15:03 43.414864 -124.245167 240 11ft 0kts
06-Jan-18 15:04 43.414864 -124.245167 240 11ft 0kts
06-Jan-18 15:05 43.414864 -124.245167 240 11ft 0kts
06-Jan-18 15:06 43.414864 -124.245167 240 11ft 0kts
06-Jan-18 15:07 43.414864 -124.245167 240 11ft 0kts
06-Jan-18 15:08 43.414864 -124.245167 240 11ft 0kts
06-Jan-18 15:09 43.414864 -124.245167 240 11ft 0kts
06-Jan-18 15:10 43.414864 -124.245167 240 11ft 0kts
06-Jan-18 15:11 43.414864 -124.245167 240 11ft 0kts
06-Jan-18 15:12 43.414864 -124.245167 240 11ft 0kts
06-Jan-18 15:13 43.414864 -124.245167 240 11ft 0kts
06-Jan-18 15:14 43.414864 -124.245167 240 11ft 0kts
06-Jan-18 15:15 43.414864 -124.245167 240 11ft 0kts
06-Jan-18 15:16 43.414864 -124.245167 240 11ft 0kts
06-Jan-18 15:17 43.414864 -124.245167 240 11ft 0kts
06-Jan-18 15:18 43.415759 -124.245484 329 11ft 15kts
06-Jan-18 15:19 43.419223 -124.246768 59 11ft 8kts
06-Jan-18 15:20 43.420219 -124.242214 62 11ft 28kts
06-Jan-18 15:21 43.422258 -124.240429 0 11ft 0kts
06-Jan-18 15:22 43.419617 -124.248632 241 38ft 119kts
06-Jan-18 15:23 43.404999 -124.305393 285 1725ft 182kts
06-Jan-18 15:24 43.435789 -124.351086 18 3222ft 178kts
06-Jan-18 15:25 43.436201 -124.291216 106 5076ft 184kts
06-Jan-18 15:26 43.423648 -124.219726 101 7603ft 199kts
06-Jan-18 15:27 43.440650 -124.153053 22 10124ft 210kts
06-Jan-18 15:28 43.494410 -124.122252 19 12637ft 209kts
06-Jan-18 15:29 43.549621 -124.089123 19 13995ft 225kts
06-Jan-18 15:30 43.607094 -124.054777 19 13997ft 225kts
06-Jan-18 15:31 43.664544 -124.018923 30 13992ft 229kts
06-Jan-18 15:32 43.714196 -123.962810 34 14002ft 231kts
06-Jan-18 15:33 43.764446 -123.906413 34 14002ft 236kts
06-Jan-18 15:34 43.815705 -123.848779 34 14000ft 239kts
06-Jan-18 15:35 43.868209 -123.789771 34 14000ft 244kts
06-Jan-18 15:36 43.921006 -123.730192 34 14000ft 245kts
06-Jan-18 15:37 43.974893 -123.669242 34 14000ft 252kts
06-Jan-18 15:38 44.029515 -123.607270 34 14001ft 255kts
06-Jan-18 15:39 44.084641 -123.544572 34 14002ft 256kts
06-Jan-18 15:40 44.139668 -123.481836 34 14001ft 256kts
06-Jan-18 15:41 44.194744 -123.418889 34 14002ft 256kts
06-Jan-18 15:42 44.250041 -123.355532 35 14002ft 257kts
06-Jan-18 15:43 44.305242 -123.292123 35 14004ft 257kts
06-Jan-18 15:44 44.360668 -123.228294 35 14005ft 258kts
06-Jan-18 15:45 44.415941 -123.164482 35 14006ft 258kts
06-Jan-18 15:46 44.471262 -123.100452 35 14006ft 258kts
06-Jan-18 15:47 44.526810 -123.035995 35 14006ft 259kts
06-Jan-18 15:48 44.582198 -122.971560 35 14005ft 259kts
06-Jan-18 15:49 44.637811 -122.906695 35 14003ft 259kts
06-Jan-18 15:50 44.693263 -122.841849 35 14002ft 259kts
06-Jan-18 15:51 44.748767 -122.776778 35 13999ft 260kts
06-Jan-18 15:52 44.804500 -122.711263 35 13998ft 260kts
06-Jan-18 15:53 44.860060 -122.645785 35 13997ft 261kts
06-Jan-18 15:54 44.915881 -122.579824 35 14003ft 261kts
06-Jan-18 15:55 44.971549 -122.513872 35 14005ft 261kts
06-Jan-18 15:56 45.027267 -122.447688 35 14006ft 262kts
06-Jan-18 15:57 45.083221 -122.381048 35 14003ft 262kts
06-Jan-18 15:58 45.139108 -122.314313 36 13993ft 263kts
06-Jan-18 15:59 45.195128 -122.247234 35 13987ft 264kts
06-Jan-18 16:00 45.251415 -122.179658 35 13984ft 264kts
06-Jan-18 16:01 45.307541 -122.112093 35 13991ft 265kts
06-Jan-18 16:02 45.363977 -122.043970 35 13989ft 266kts
06-Jan-18 16:03 45.420336 -121.975758 35 13986ft 267kts
06-Jan-18 16:04 45.476853 -121.907165 36 13982ft 267kts
06-Jan-18 16:05 45.533623 -121.838069 35 13984ft 267kts
06-Jan-18 16:06 45.590076 -121.769182 35 14018ft 268kts
06-Jan-18 16:07 45.646891 -121.699655 35 14008ft 268kts
06-Jan-18 16:08 45.703531 -121.630149 36 14002ft 268kts
06-Jan-18 16:09 45.760121 -121.560511 36 13997ft 268kts
06-Jan-18 16:10 45.816865 -121.490491 36 13994ft 268kts
06-Jan-18 16:11 45.873364 -121.420578 36 13993ft 268kts
06-Jan-18 16:12 45.929798 -121.350550 36 13989ft 268kts
06-Jan-18 16:13 45.986398 -121.280117 36 13981ft 268kts
06-Jan-18 16:14 46.043104 -121.209376 35 13978ft 274kts
06-Jan-18 16:15 46.101227 -121.136632 35 13967ft 278kts
06-Jan-18 16:16 46.159882 -121.062997 35 13963ft 279kts
06-Jan-18 16:17 46.218313 -120.989305 35 13959ft 279kts
06-Jan-18 16:18 46.275639 -120.916763 35 13402ft 257kts
06-Jan-18 16:19 46.327578 -120.851000 36 11597ft 241kts
06-Jan-18 16:20 46.349375 -120.763153 84 9804ft 237kts
06-Jan-18 16:21 46.354846 -120.670561 84 7958ft 215kts
06-Jan-18 16:22 46.359620 -120.588920 84 6111ft 201kts
06-Jan-18 16:23 46.364479 -120.506981 85 4712ft 208kts
06-Jan-18 16:24 46.370129 -120.424733 84 3963ft 195kts
06-Jan-18 16:25 46.375581 -120.349587 84 4000ft 187kts
06-Jan-18 16:26 46.381825 -120.273094 70 3999ft 196kts
06-Jan-18 16:27 46.425247 -120.229534 24 4000ft 188kts
06-Jan-18 16:28 46.470725 -120.212809 321 4019ft 165kts
06-Jan-18 16:29 46.499515 -120.259781 282 4006ft 153kts
06-Jan-18 16:30 46.512749 -120.319552 286 3997ft 152kts
06-Jan-18 16:31 46.526264 -120.374113 285 3311ft 107kts
06-Jan-18 16:32 46.534735 -120.408288 283 2487ft 90kts
06-Jan-18 16:33 46.542897 -120.441256 283 2392ft 88kts
06-Jan-18 16:34 46.551917 -120.476572 274 2014ft 103kts
06-Jan-18 16:35 46.560648 -120.512619 285 1358ft 96kts
06-Jan-18 16:36 46.567816 -120.540503 288 1058ft 16kts
06-Jan-18 16:37 46.569689 -120.543042 329 1058ft 11kts

Navigation Log

Ident Type
Flight plan parsing failed, navigation log unavailable